createdAt,value
2024-01-20T00:01:16.561Z,-0.40
2024-01-20T00:03:43.383Z,-0.50
2024-01-20T00:06:10.528Z,-0.50
2024-01-20T00:08:37.986Z,-0.50
2024-01-20T00:11:04.830Z,-0.40
2024-01-20T00:13:31.530Z,-0.40
2024-01-20T00:16:00.790Z,-0.50
2024-01-20T00:18:27.645Z,-0.50
2024-01-20T00:20:54.384Z,-0.50
2024-01-20T00:23:21.586Z,-0.50
2024-01-20T00:25:48.216Z,-0.50
2024-01-20T00:28:14.943Z,-0.40
2024-01-20T00:30:41.733Z,-0.40
2024-01-20T00:33:10.430Z,-0.30
2024-01-20T00:35:38.131Z,-0.30
2024-01-20T00:38:05.048Z,-0.30
2024-01-20T00:40:31.874Z,-0.20
2024-01-20T00:42:58.874Z,-0.20
2024-01-20T00:45:25.720Z,-0.10
2024-01-20T00:47:52.331Z,-0.10
2024-01-20T00:50:19.007Z,-0.20
2024-01-20T00:52:45.807Z,-0.20
2024-01-20T00:55:13.288Z,-0.30
2024-01-20T00:57:39.865Z,-0.40
2024-01-20T01:00:10.300Z,-0.50
2024-01-20T01:02:39.989Z,-0.50
2024-01-20T01:05:07.262Z,-0.60
2024-01-20T01:07:36.322Z,-0.60
2024-01-20T01:10:08.106Z,-0.60
2024-01-20T01:12:36.002Z,-0.50
2024-01-20T01:15:02.908Z,-0.50
2024-01-20T01:17:34.467Z,-0.40
2024-01-20T01:20:03.721Z,-0.30
2024-01-20T01:22:30.880Z,-0.20
2024-01-20T01:24:57.418Z,-0.20
2024-01-20T01:27:23.999Z,-0.10
2024-01-20T01:29:50.783Z,-0.10
2024-01-20T01:32:17.691Z,-0.10
2024-01-20T01:34:44.366Z,-0.10
2024-01-20T01:37:11.033Z,-0.10
2024-01-20T01:39:38.331Z,-0.10
2024-01-20T01:42:05.121Z,-0.10
2024-01-20T01:44:34.715Z,0.00
2024-01-20T01:47:01.713Z,-0.10
2024-01-20T01:49:30.775Z,-0.10
2024-01-20T01:51:57.685Z,-0.10
2024-01-20T01:54:25.890Z,-0.10
2024-01-20T01:56:57.669Z,0.00
2024-01-20T01:59:24.716Z,0.00
2024-01-20T02:01:52.931Z,0.00
2024-01-20T02:04:19.650Z,-0.10
2024-01-20T02:06:46.657Z,-0.20
2024-01-20T02:09:14.365Z,-0.30
2024-01-20T02:11:42.428Z,-0.40
2024-01-20T02:14:09.941Z,-0.40
2024-01-20T02:16:36.513Z,-0.40
2024-01-20T02:19:05.259Z,-0.50
2024-01-20T02:21:33.918Z,-0.50
2024-01-20T02:24:01.248Z,-0.50
2024-01-20T02:26:29.444Z,-0.50
2024-01-20T02:28:56.561Z,-0.60
2024-01-20T02:31:23.430Z,-0.50
2024-01-20T02:33:50.148Z,-0.50
2024-01-20T02:36:17.053Z,-0.40
2024-01-20T02:38:43.852Z,-0.50
2024-01-20T02:41:10.859Z,-0.40
2024-01-20T02:43:37.601Z,-0.50
2024-01-20T02:46:04.256Z,-0.40
2024-01-20T02:48:31.450Z,-0.40
2024-01-20T02:50:58.351Z,-0.40
2024-01-20T02:53:26.974Z,-0.40
2024-01-20T02:55:53.560Z,-0.40
2024-01-20T02:58:20.312Z,-0.40
2024-01-20T03:00:47.994Z,-0.30
2024-01-20T03:03:16.207Z,-0.30
2024-01-20T03:05:42.997Z,-0.20
2024-01-20T03:08:09.892Z,-0.20
2024-01-20T03:10:36.949Z,-0.20
2024-01-20T03:13:05.268Z,-0.20
2024-01-20T03:15:31.967Z,-0.20
2024-01-20T03:17:58.709Z,-0.20
2024-01-20T03:20:25.376Z,-0.20
2024-01-20T03:22:52.698Z,-0.20
2024-01-20T03:25:21.643Z,-0.20
2024-01-20T03:27:49.955Z,-0.20
2024-01-20T03:30:17.295Z,-0.30
2024-01-20T03:32:44.033Z,-0.30
2024-01-20T03:35:10.886Z,-0.30
2024-01-20T03:37:37.486Z,-0.20
2024-01-20T03:40:06.843Z,-0.10
2024-01-20T03:42:33.405Z,-0.10
2024-01-20T03:45:01.301Z,-0.10
2024-01-20T03:47:28.446Z,-0.20
2024-01-20T03:49:55.705Z,0.00
2024-01-20T03:52:22.322Z,0.00
2024-01-20T03:54:48.942Z,0.10
2024-01-20T03:57:15.474Z,0.10
2024-01-20T03:59:42.283Z,0.20
2024-01-20T04:02:11.005Z,0.10
2024-01-20T04:04:38.705Z,0.10
2024-01-20T04:07:07.082Z,0.20
2024-01-20T04:09:34.676Z,0.20
2024-01-20T04:12:01.322Z,0.20
2024-01-20T04:14:28.201Z,0.10
2024-01-20T04:16:54.932Z,0.10
2024-01-20T04:19:21.499Z,0.10
2024-01-20T04:21:48.156Z,0.10
2024-01-20T04:24:14.770Z,0.20
2024-01-20T04:26:42.394Z,0.10
2024-01-20T04:29:08.939Z,0.10
2024-01-20T04:31:36.316Z,0.20
2024-01-20T04:34:03.022Z,0.20
2024-01-20T04:36:29.767Z,0.20
2024-01-20T04:38:56.387Z,0.20
2024-01-20T04:41:22.935Z,0.10
2024-01-20T04:43:49.551Z,0.20
2024-01-20T04:46:16.677Z,0.20
2024-01-20T04:48:43.369Z,0.20
2024-01-20T04:51:10.365Z,0.20
2024-01-20T04:53:36.999Z,0.10
2024-01-20T04:56:05.669Z,0.10
2024-01-20T04:58:32.552Z,0.00
2024-01-20T05:00:59.336Z,0.00
2024-01-20T05:03:25.914Z,0.00
2024-01-20T05:05:54.682Z,0.00
2024-01-20T05:08:21.493Z,0.10
2024-01-20T05:10:48.798Z,0.20
2024-01-20T05:13:15.422Z,0.20
2024-01-20T05:15:42.094Z,0.20
2024-01-20T05:18:08.861Z,0.20
2024-01-20T05:20:35.591Z,0.10
2024-01-20T05:23:03.969Z,0.10
2024-01-20T05:25:30.863Z,0.10
2024-01-20T05:27:58.848Z,0.10
2024-01-20T05:30:27.904Z,0.20
2024-01-20T05:32:54.810Z,0.20
2024-01-20T05:35:21.411Z,0.30
2024-01-20T05:37:50.087Z,0.30
2024-01-20T05:40:16.873Z,0.40
2024-01-20T05:42:45.123Z,0.30
2024-01-20T05:45:13.022Z,0.40
2024-01-20T05:47:40.695Z,0.40
2024-01-20T05:50:08.042Z,0.30
2024-01-20T05:52:35.587Z,0.30
2024-01-20T05:55:02.607Z,0.30
2024-01-20T05:57:29.454Z,0.30
2024-01-20T05:59:56.097Z,0.30
2024-01-20T06:02:24.734Z,0.20
2024-01-20T06:04:51.317Z,0.20
2024-01-20T06:07:18.337Z,0.20
2024-01-20T06:09:45.154Z,0.20
2024-01-20T06:12:13.486Z,0.20
2024-01-20T06:14:41.296Z,0.10
2024-01-20T06:17:09.877Z,0.10
2024-01-20T06:19:37.763Z,0.10
2024-01-20T06:22:05.850Z,0.10
2024-01-20T06:24:32.684Z,0.00
2024-01-20T06:26:59.331Z,0.00
2024-01-20T06:29:25.903Z,0.00
2024-01-20T06:31:54.468Z,0.10
2024-01-20T06:34:21.241Z,0.10
2024-01-20T06:36:48.102Z,0.10
2024-01-20T06:39:15.954Z,0.10
2024-01-20T06:41:46.502Z,0.10
2024-01-20T06:44:13.282Z,0.10
2024-01-20T06:46:39.923Z,0.10
2024-01-20T06:49:06.805Z,0.00
2024-01-20T06:51:33.753Z,0.10
2024-01-20T06:54:00.384Z,0.00
2024-01-20T06:56:29.975Z,0.00
2024-01-20T06:58:58.843Z,0.00
2024-01-20T07:01:26.308Z,0.00
2024-01-20T07:03:53.061Z,0.00
2024-01-20T07:06:26.194Z,0.00
2024-01-20T07:08:56.449Z,0.20
2024-01-20T07:11:25.356Z,0.20
2024-01-20T07:13:52.182Z,0.30
2024-01-20T07:16:22.710Z,0.30
2024-01-20T07:18:53.060Z,0.40
2024-01-20T07:21:21.215Z,0.50
2024-01-20T07:23:47.731Z,0.50
2024-01-20T07:26:14.399Z,0.50
2024-01-20T07:28:40.995Z,0.50
2024-01-20T07:31:07.546Z,0.60
2024-01-20T07:33:35.163Z,0.60
2024-01-20T07:36:02.183Z,0.70
2024-01-20T07:38:29.006Z,0.80
2024-01-20T07:40:56.335Z,0.70
2024-01-20T07:43:22.880Z,0.70
2024-01-20T07:45:49.524Z,0.80
2024-01-20T07:48:18.640Z,0.70
2024-01-20T07:50:48.724Z,0.80
2024-01-20T07:53:15.639Z,0.80
2024-01-20T07:55:42.294Z,0.80
2024-01-20T07:58:08.887Z,0.80
2024-01-20T08:00:36.599Z,0.90
2024-01-20T08:03:03.598Z,0.80
2024-01-20T08:05:33.661Z,0.90
2024-01-20T08:08:01.856Z,0.90
2024-01-20T08:10:28.681Z,0.90
2024-01-20T08:12:56.603Z,1.00
2024-01-20T08:15:24.658Z,1.00
2024-01-20T08:17:51.567Z,1.00
2024-01-20T08:20:18.191Z,1.10
2024-01-20T08:22:45.016Z,1.00
2024-01-20T08:25:11.748Z,1.00
2024-01-20T08:27:38.439Z,1.10
2024-01-20T08:30:08.538Z,1.10
2024-01-20T08:32:39.373Z,1.20
2024-01-20T08:35:08.350Z,1.10
2024-01-20T08:37:36.946Z,1.10
2024-01-20T08:40:03.934Z,1.10
2024-01-20T08:42:31.590Z,1.20
2024-01-20T08:44:59.087Z,1.20
2024-01-20T08:47:25.673Z,1.20
2024-01-20T08:49:54.814Z,1.20
2024-01-20T08:52:23.321Z,1.20
2024-01-20T08:54:51.294Z,1.30
2024-01-20T08:57:18.296Z,1.30
2024-01-20T08:59:44.861Z,1.30
2024-01-20T09:02:11.885Z,1.40
2024-01-20T09:04:42.032Z,1.50
2024-01-20T09:07:21.508Z,1.50
2024-01-20T09:09:50.625Z,1.60
2024-01-20T09:12:17.510Z,1.70
2024-01-20T09:14:44.312Z,1.60
2024-01-20T09:17:11.012Z,1.60
2024-01-20T09:19:37.858Z,1.70
2024-01-20T09:22:05.192Z,1.70
2024-01-20T09:24:32.053Z,1.70
2024-01-20T09:26:58.621Z,1.70
2024-01-20T09:29:32.875Z,1.80
2024-01-20T09:31:59.678Z,1.80
2024-01-20T09:34:26.771Z,1.80
2024-01-20T09:36:54.994Z,1.70
2024-01-20T09:39:21.848Z,1.70
2024-01-20T09:41:49.154Z,1.70
2024-01-20T09:44:17.293Z,1.80
2024-01-20T09:46:44.240Z,1.80
2024-01-20T09:49:11.081Z,1.80
2024-01-20T09:51:50.748Z,2.00
2024-01-20T09:54:21.150Z,2.30
2024-01-20T09:56:48.554Z,2.60
2024-01-20T09:59:16.591Z,2.50
2024-01-20T10:01:44.270Z,2.80
2024-01-20T10:04:12.146Z,2.80
2024-01-20T10:06:40.174Z,2.90
2024-01-20T10:09:06.903Z,2.80
2024-01-20T10:11:33.492Z,2.70
2024-01-20T10:14:00.520Z,2.90
2024-01-20T10:16:27.354Z,2.90
2024-01-20T10:18:54.547Z,3.00
2024-01-20T10:21:23.189Z,2.90
2024-01-20T10:23:49.864Z,2.90
2024-01-20T10:26:16.733Z,2.80
2024-01-20T10:28:44.910Z,2.90
2024-01-20T10:31:12.989Z,3.00
2024-01-20T10:33:41.070Z,3.00
2024-01-20T10:36:08.756Z,3.00
2024-01-20T10:38:42.117Z,3.10
2024-01-20T10:41:10.130Z,3.30
2024-01-20T10:43:43.006Z,3.30
2024-01-20T10:46:32.543Z,3.20
2024-01-20T10:49:01.704Z,3.10
2024-01-20T10:51:29.564Z,3.00
2024-01-20T10:53:57.899Z,3.00
2024-01-20T10:56:27.696Z,2.90
2024-01-20T10:59:17.187Z,2.80
2024-01-20T11:01:46.912Z,2.90
2024-01-20T11:04:23.721Z,2.90
2024-01-20T11:06:52.209Z,2.70
2024-01-20T11:09:23.397Z,2.90
2024-01-20T11:12:09.926Z,3.00
2024-01-20T11:14:36.911Z,3.00
2024-01-20T11:17:14.339Z,3.10
2024-01-20T11:19:41.280Z,3.00
2024-01-20T11:22:33.029Z,3.50
2024-01-20T11:25:05.287Z,3.50
2024-01-20T11:27:33.491Z,3.50
2024-01-20T11:30:09.894Z,3.70
2024-01-20T11:32:36.609Z,3.70
2024-01-20T11:35:05.749Z,3.70
2024-01-20T11:37:35.507Z,4.00
2024-01-20T11:40:12.572Z,3.90
2024-01-20T11:42:39.655Z,4.40
2024-01-20T11:45:08.331Z,4.70
2024-01-20T11:47:35.660Z,5.70
2024-01-20T11:50:03.359Z,5.10
2024-01-20T11:52:31.314Z,5.30
2024-01-20T11:54:58.129Z,6.30
2024-01-20T11:57:31.466Z,6.80
2024-01-20T11:59:59.166Z,7.20
2024-01-20T12:02:26.696Z,7.50
2024-01-20T12:04:59.714Z,7.40
2024-01-20T12:07:29.096Z,6.40
2024-01-20T12:09:55.929Z,6.50
2024-01-20T12:12:24.137Z,8.00
2024-01-20T12:14:51.329Z,8.10
2024-01-20T12:17:23.583Z,7.40
2024-01-20T12:19:50.593Z,7.70
2024-01-20T12:22:17.717Z,7.70
2024-01-20T12:24:48.273Z,7.70
2024-01-20T12:27:16.195Z,8.00
2024-01-20T12:29:42.902Z,7.20
2024-01-20T12:32:09.763Z,6.60
2024-01-20T12:34:36.303Z,7.10
2024-01-20T12:37:04.544Z,6.10
2024-01-20T12:39:32.123Z,5.90
2024-01-20T12:41:58.696Z,5.40
2024-01-20T12:44:25.283Z,5.00
2024-01-20T12:46:55.882Z,4.70
2024-01-20T12:49:24.728Z,4.50
2024-01-20T12:51:51.486Z,4.30
2024-01-20T12:54:18.213Z,4.10
2024-01-20T12:56:46.095Z,4.00
2024-01-20T12:59:12.737Z,4.30
2024-01-20T13:01:39.354Z,4.20
2024-01-20T13:04:06.014Z,4.30
2024-01-20T13:06:33.779Z,4.30
2024-01-20T13:09:02.209Z,4.20
2024-01-20T13:11:31.028Z,4.10
2024-01-20T13:14:00.065Z,4.20
2024-01-20T13:16:26.963Z,4.20
2024-01-20T13:18:54.462Z,4.30
2024-01-20T13:21:23.399Z,4.20
2024-01-20T13:23:51.025Z,4.40
2024-01-20T13:26:17.932Z,4.30
2024-01-20T13:28:47.752Z,4.50
2024-01-20T13:31:20.791Z,4.20
2024-01-20T13:33:47.776Z,4.20
2024-01-20T13:36:14.627Z,4.20
2024-01-20T13:38:41.293Z,4.10
2024-01-20T13:41:08.044Z,4.10
2024-01-20T13:43:36.382Z,4.00
2024-01-20T13:46:04.999Z,4.10
2024-01-20T13:48:32.248Z,4.10
2024-01-20T13:50:59.232Z,4.00
2024-01-20T13:53:28.857Z,4.00
2024-01-20T13:55:55.396Z,4.00
2024-01-20T13:58:50.958Z,3.90
2024-01-20T14:01:22.537Z,3.90
2024-01-20T14:03:50.084Z,3.90
2024-01-20T14:06:17.430Z,3.90
2024-01-20T14:08:44.112Z,4.00
2024-01-20T14:11:10.794Z,3.90
2024-01-20T14:13:37.384Z,3.80
2024-01-20T14:16:04.094Z,3.90
2024-01-20T14:18:32.295Z,3.90
2024-01-20T14:21:00.204Z,3.80
2024-01-20T14:23:27.056Z,3.70
2024-01-20T14:25:55.443Z,3.70
2024-01-20T14:28:23.161Z,3.70
2024-01-20T14:30:49.832Z,3.70
2024-01-20T14:33:17.423Z,3.70
2024-01-20T14:35:46.395Z,3.60
2024-01-20T14:38:14.764Z,3.70
2024-01-20T14:40:42.070Z,3.60
2024-01-20T14:43:09.442Z,3.50
2024-01-20T14:45:35.989Z,3.50
2024-01-20T14:48:02.886Z,3.40
2024-01-20T14:50:29.844Z,3.40
2024-01-20T14:53:13.895Z,3.30
2024-01-20T14:55:42.342Z,3.30
2024-01-20T14:58:09.113Z,3.20
2024-01-20T15:00:39.026Z,3.30
2024-01-20T15:03:05.929Z,3.20
2024-01-20T15:05:32.916Z,3.20
2024-01-20T15:07:59.527Z,3.20
2024-01-20T15:10:26.162Z,3.00
2024-01-20T15:12:52.894Z,3.00
2024-01-20T15:15:19.690Z,3.00
2024-01-20T15:17:46.345Z,2.90
2024-01-20T15:20:15.619Z,2.90
2024-01-20T15:22:43.584Z,2.80
2024-01-20T15:25:12.252Z,2.70
2024-01-20T15:27:41.398Z,2.70
2024-01-20T15:30:11.363Z,2.70
2024-01-20T15:32:38.329Z,2.70
2024-01-20T15:35:06.290Z,2.70
2024-01-20T15:37:36.761Z,2.70
2024-01-20T15:40:04.017Z,2.60
2024-01-20T15:42:45.136Z,2.50
2024-01-20T15:45:14.051Z,2.50
2024-01-20T15:47:41.674Z,2.50
2024-01-20T15:50:08.847Z,2.50
2024-01-20T15:52:36.561Z,2.40
2024-01-20T15:55:03.618Z,2.50
2024-01-20T15:57:30.249Z,2.50
2024-01-20T15:59:58.362Z,2.50
2024-01-20T16:02:26.092Z,2.40
2024-01-20T16:04:52.661Z,2.40
2024-01-20T16:07:19.965Z,2.20
2024-01-20T16:09:48.091Z,2.20
2024-01-20T16:12:14.713Z,2.20
2024-01-20T16:14:41.383Z,2.20
2024-01-20T16:17:10.601Z,2.30
2024-01-20T16:19:37.238Z,2.20
2024-01-20T16:22:04.092Z,2.20
2024-01-20T16:24:30.961Z,2.20
2024-01-20T16:26:57.879Z,2.10
2024-01-20T16:29:24.525Z,2.10
2024-01-20T16:31:53.060Z,2.10
2024-01-20T16:34:21.912Z,2.10
2024-01-20T16:36:50.199Z,2.00
2024-01-20T16:39:17.613Z,2.00
2024-01-20T16:41:44.679Z,1.90
2024-01-20T16:44:11.912Z,1.90
2024-01-20T16:46:39.989Z,1.80
2024-01-20T16:49:09.500Z,1.80
2024-01-20T16:51:36.580Z,1.70
2024-01-20T16:54:03.418Z,1.60
2024-01-20T16:56:32.028Z,1.60
2024-01-20T16:58:58.849Z,1.60
2024-01-20T17:01:25.498Z,1.50
2024-01-20T17:03:52.535Z,1.40
2024-01-20T17:06:21.116Z,1.40
2024-01-20T17:08:47.873Z,1.40
2024-01-20T17:11:14.622Z,1.30
2024-01-20T17:13:45.085Z,1.30
2024-01-20T17:16:11.772Z,1.20
2024-01-20T17:18:38.777Z,1.20
2024-01-20T17:21:05.530Z,1.20
2024-01-20T17:23:32.185Z,1.20
2024-01-20T17:25:58.761Z,1.30
2024-01-20T17:28:25.454Z,1.40
2024-01-20T17:30:52.284Z,1.40
2024-01-20T17:33:19.631Z,1.50
2024-01-20T17:35:46.271Z,1.50
2024-01-20T17:38:13.084Z,1.50
2024-01-20T17:40:40.883Z,1.60
2024-01-20T17:43:07.804Z,1.60
2024-01-20T17:45:34.422Z,1.70
2024-01-20T17:48:01.035Z,1.60
2024-01-20T17:50:31.013Z,1.60
2024-01-20T17:52:59.062Z,1.60
2024-01-20T17:55:27.346Z,1.60
2024-01-20T17:57:55.220Z,1.60
2024-01-20T18:00:22.037Z,1.50
2024-01-20T18:02:52.152Z,1.40
2024-01-20T18:05:19.247Z,1.30
2024-01-20T18:07:50.572Z,1.30
2024-01-20T18:10:19.987Z,1.30
2024-01-20T18:12:46.916Z,1.40
2024-01-20T18:15:16.268Z,1.20
2024-01-20T18:20:31.776Z,1.20
2024-01-20T18:22:59.979Z,1.20
2024-01-20T18:25:27.174Z,1.10
2024-01-20T18:27:53.719Z,1.00
2024-01-20T18:30:20.235Z,1.00
2024-01-20T18:32:47.387Z,0.80
2024-01-20T18:35:14.008Z,0.80
2024-01-20T18:37:43.807Z,0.80
2024-01-20T18:40:12.752Z,0.70
2024-01-20T18:42:39.566Z,0.60
2024-01-20T18:45:06.810Z,0.60
2024-01-20T18:47:33.454Z,0.50
2024-01-20T18:50:00.357Z,0.50
2024-01-20T18:52:27.578Z,0.50
2024-01-20T18:54:57.312Z,0.40
2024-01-20T18:57:24.896Z,0.40
2024-01-20T18:59:51.572Z,0.30
2024-01-20T19:02:19.219Z,0.30
2024-01-20T19:04:46.212Z,0.30
2024-01-20T19:07:13.367Z,0.30
2024-01-20T19:09:40.483Z,0.20
2024-01-20T19:14:52.854Z,0.20
2024-01-20T19:17:27.509Z,0.10
2024-01-20T19:19:55.241Z,0.20
2024-01-20T19:22:23.960Z,0.10
2024-01-20T19:24:59.175Z,0.00
2024-01-20T19:27:27.418Z,0.00
2024-01-20T19:29:54.301Z,0.00
2024-01-20T19:32:25.223Z,-0.10
2024-01-20T19:34:54.224Z,-0.10
2024-01-20T19:37:20.814Z,-0.10
2024-01-20T19:39:47.628Z,-0.20
2024-01-20T19:42:15.830Z,-0.10
2024-01-20T19:44:43.398Z,-0.20
2024-01-20T19:47:10.175Z,-0.20
2024-01-20T19:49:39.062Z,-0.20
2024-01-20T19:52:10.305Z,-0.20
2024-01-20T19:54:37.157Z,-0.30
2024-01-20T19:57:04.681Z,-0.30
2024-01-20T19:59:31.370Z,-0.30
2024-01-20T20:01:58.147Z,-0.40
2024-01-20T20:04:33.784Z,-0.40
2024-01-20T20:07:05.475Z,-0.40
2024-01-20T20:09:35.071Z,-0.50
2024-01-20T20:12:03.116Z,-0.50
2024-01-20T20:14:29.950Z,-0.50
2024-01-20T20:16:57.047Z,-0.50
2024-01-20T20:19:24.991Z,-0.50
2024-01-20T20:21:53.752Z,-0.50
2024-01-20T20:24:20.545Z,-0.60
2024-01-20T20:26:47.457Z,-0.60
2024-01-20T20:29:14.471Z,-0.70
2024-01-20T20:31:41.493Z,-0.70
2024-01-20T20:34:08.790Z,-0.70
2024-01-20T20:36:37.346Z,-0.70
2024-01-20T20:39:04.235Z,-0.80
2024-01-20T20:41:31.334Z,-0.80
2024-01-20T20:43:59.380Z,-0.80
2024-01-20T20:46:27.802Z,-0.90
2024-01-20T20:48:55.974Z,-0.90
2024-01-20T20:51:22.853Z,-0.80
2024-01-20T20:53:49.864Z,-0.90
2024-01-20T20:56:16.429Z,-1.00
2024-01-20T20:58:44.179Z,-1.00
2024-01-20T21:01:13.904Z,-1.00
2024-01-20T21:03:40.662Z,-1.00
2024-01-20T21:06:07.934Z,-1.10
2024-01-20T21:08:36.394Z,-1.10
2024-01-20T21:11:04.154Z,-1.20
2024-01-20T21:13:33.119Z,-1.20
2024-01-20T21:15:59.995Z,-1.30
2024-01-20T21:18:30.798Z,-1.40
2024-01-20T21:20:57.920Z,-1.40
2024-01-20T21:23:28.921Z,-1.40
2024-01-20T21:25:57.182Z,-1.50
2024-01-20T21:28:25.325Z,-1.50
2024-01-20T21:30:55.821Z,-1.40
2024-01-20T21:33:22.741Z,-1.50
2024-01-20T21:35:49.559Z,-1.60
2024-01-20T21:38:16.510Z,-1.50
2024-01-20T21:40:48.721Z,-1.60
2024-01-20T21:43:15.723Z,-1.60
2024-01-20T21:45:44.979Z,-1.70
2024-01-20T21:48:12.948Z,-1.70
2024-01-20T21:50:44.575Z,-1.80
2024-01-20T21:53:16.150Z,-1.80
2024-01-20T21:55:44.952Z,-2.00
2024-01-20T21:58:12.714Z,-2.00
2024-01-20T22:00:40.738Z,-2.00
2024-01-20T22:03:07.867Z,-2.10
2024-01-20T22:05:34.801Z,-2.10
2024-01-20T22:08:01.730Z,-2.10
2024-01-20T22:10:28.689Z,-2.20
2024-01-20T22:12:55.717Z,-2.10
2024-01-20T22:15:22.883Z,-2.20
2024-01-20T22:17:49.521Z,-2.20
2024-01-20T22:20:16.048Z,-2.20
2024-01-20T22:22:43.674Z,-2.30
2024-01-20T22:25:13.468Z,-2.30
2024-01-20T22:27:40.791Z,-2.30
2024-01-20T22:30:10.738Z,-2.30
2024-01-20T22:32:39.532Z,-2.40
2024-01-20T22:35:07.658Z,-2.40
2024-01-20T22:37:34.347Z,-2.40
2024-01-20T22:40:03.350Z,-2.40
2024-01-20T22:42:33.323Z,-2.50
2024-01-20T22:45:08.729Z,-2.60
2024-01-20T22:47:35.292Z,-2.70
2024-01-20T22:50:04.713Z,-2.70
2024-01-20T22:52:31.482Z,-2.90
2024-01-20T22:54:58.494Z,-2.90
2024-01-20T22:57:25.240Z,-2.80
2024-01-20T22:59:51.839Z,-3.00
2024-01-20T23:02:19.459Z,-3.00
2024-01-20T23:04:46.947Z,-3.10
2024-01-20T23:07:13.922Z,-3.10
2024-01-20T23:09:41.984Z,-3.00
2024-01-20T23:12:11.823Z,-3.10
2024-01-20T23:14:39.462Z,-3.10
2024-01-20T23:17:06.358Z,-3.20
2024-01-20T23:19:32.926Z,-3.30
2024-01-20T23:21:59.523Z,-3.20
2024-01-20T23:24:32.129Z,-3.30
2024-01-20T23:26:59.008Z,-3.30
2024-01-20T23:29:26.268Z,-3.40
2024-01-20T23:31:52.967Z,-3.40
2024-01-20T23:34:19.818Z,-3.40
2024-01-20T23:36:47.315Z,-3.50
2024-01-20T23:39:15.181Z,-3.50
2024-01-20T23:41:41.981Z,-3.60
2024-01-20T23:44:08.587Z,-3.70
2024-01-20T23:46:35.157Z,-3.70
2024-01-20T23:49:01.713Z,-3.80
2024-01-20T23:51:32.481Z,-3.80
2024-01-20T23:53:59.016Z,-3.80
2024-01-20T23:56:25.572Z,-3.80
2024-01-20T23:58:52.369Z,-3.70
